Terminal Aerodrome Forecast
Issued by NWS

Home | Current Version | Previous Version | Text Only | Print | Product List | Glossary On
Versions: 1 2 3 4 5 6 7 8 9 10 11 12 13 14 15 16 17 18 19 20 21 22 23 24 25 26 27 28 29
000
FTUS41 KGYX 301122
TAFLEB
TAF
KLEB 301122Z 3012/3112 VRB03KT 5SM -SN BR OVC020
      TEMPO 3012/3014 2SM -SN BR OVC012
     FM301400 VRB03KT 1 1/2SM -SN BR OVC007
     FM301800 32008KT 2SM -SN BR OVC007
     FM302100 33013G24KT 6SM -SHSN OVC025=

USA.gov is the U.S. government's official web portal to all federal, state and local government web resources and services.